sensor_id;sensor_type;location;lat;lon;timestamp;pressure;altitude;pressure_sealevel;temperature;humidity
22753;BME280;11543;43.144;24.684;2023-04-22T00:02:08;98506.75;;;14.31;68.96
22753;BME280;11543;43.144;24.684;2023-04-22T00:04:34;98504.63;;;14.27;69.20
22753;BME280;11543;43.144;24.684;2023-04-22T00:07:00;98511.03;;;14.26;69.09
22753;BME280;11543;43.144;24.684;2023-04-22T00:09:25;98512.91;;;14.25;69.08
22753;BME280;11543;43.144;24.684;2023-04-22T00:11:51;98513.72;;;14.26;68.91
22753;BME280;11543;43.144;24.684;2023-04-22T00:14:17;98512.44;;;14.22;68.98
22753;BME280;11543;43.144;24.684;2023-04-22T00:16:43;98514.00;;;14.16;68.78
22753;BME280;11543;43.144;24.684;2023-04-22T00:19:08;98515.78;;;14.24;68.56
22753;BME280;11543;43.144;24.684;2023-04-22T00:21:34;98502.09;;;14.25;68.67
22753;BME280;11543;43.144;24.684;2023-04-22T00:23:59;98507.69;;;14.24;68.25
22753;BME280;11543;43.144;24.684;2023-04-22T00:26:25;98498.09;;;14.21;68.11
22753;BME280;11543;43.144;24.684;2023-04-22T00:28:52;98508.34;;;14.26;68.14
22753;BME280;11543;43.144;24.684;2023-04-22T00:31:17;98504.16;;;14.23;68.18
22753;BME280;11543;43.144;24.684;2023-04-22T00:33:43;98510.00;;;14.27;67.99
22753;BME280;11543;43.144;24.684;2023-04-22T00:36:08;98499.59;;;14.24;68.32
22753;BME280;11543;43.144;24.684;2023-04-22T00:38:34;98505.81;;;14.24;68.39
22753;BME280;11543;43.144;24.684;2023-04-22T00:41:00;98502.38;;;14.16;68.48
22753;BME280;11543;43.144;24.684;2023-04-22T00:43:26;98507.41;;;14.19;68.46
22753;BME280;11543;43.144;24.684;2023-04-22T00:45:52;98513.44;;;14.21;68.33
22753;BME280;11543;43.144;24.684;2023-04-22T00:48:18;98506.09;;;14.15;68.65
22753;BME280;11543;43.144;24.684;2023-04-22T00:50:43;98520.25;;;14.17;68.65
22753;BME280;11543;43.144;24.684;2023-04-22T00:53:09;98516.53;;;14.18;68.81
22753;BME280;11543;43.144;24.684;2023-04-22T00:55:35;98497.72;;;14.10;68.80
22753;BME280;11543;43.144;24.684;2023-04-22T00:58:01;98500.72;;;14.15;68.69
22753;BME280;11543;43.144;24.684;2023-04-22T01:00:28;98507.03;;;14.22;68.82
22753;BME280;11543;43.144;24.684;2023-04-22T01:02:54;98512.44;;;14.22;68.53
22753;BME280;11543;43.144;24.684;2023-04-22T01:05:20;98501.81;;;14.20;68.50
22753;BME280;11543;43.144;24.684;2023-04-22T01:07:46;98517.81;;;14.22;68.56
22753;BME280;11543;43.144;24.684;2023-04-22T01:10:12;98514.28;;;14.21;68.59
22753;BME280;11543;43.144;24.684;2023-04-22T01:12:37;98503.97;;;14.10;68.78
22753;BME280;11543;43.144;24.684;2023-04-22T01:15:03;98504.63;;;13.97;68.65
22753;BME280;11543;43.144;24.684;2023-04-22T01:17:30;98508.31;;;13.96;68.96
22753;BME280;11543;43.144;24.684;2023-04-22T01:19:59;98498.28;;;13.90;69.21
22753;BME280;11543;43.144;24.684;2023-04-22T01:22:31;98504.03;;;13.87;69.45
22753;BME280;11543;43.144;24.684;2023-04-22T01:24:59;98493.31;;;13.79;69.79
22753;BME280;11543;43.144;24.684;2023-04-22T01:27:26;98488.56;;;13.81;69.81
22753;BME280;11543;43.144;24.684;2023-04-22T01:29:52;98496.66;;;13.81;69.79
22753;BME280;11543;43.144;24.684;2023-04-22T01:32:17;98497.09;;;13.70;69.63
22753;BME280;11543;43.144;24.684;2023-04-22T01:34:43;98494.38;;;13.55;69.93
22753;BME280;11543;43.144;24.684;2023-04-22T01:37:09;98511.09;;;13.51;70.42
22753;BME280;11543;43.144;24.684;2023-04-22T01:39:35;98500.03;;;13.46;70.44
22753;BME280;11543;43.144;24.684;2023-04-22T01:42:01;98501.22;;;13.43;70.92
22753;BME280;11543;43.144;24.684;2023-04-22T01:44:27;98505.91;;;13.49;70.75
22753;BME280;11543;43.144;24.684;2023-04-22T01:46:53;98494.16;;;13.42;71.05
22753;BME280;11543;43.144;24.684;2023-04-22T01:49:18;98494.41;;;13.32;71.38
22753;BME280;11543;43.144;24.684;2023-04-22T01:51:44;98511.66;;;13.23;71.60
22753;BME280;11543;43.144;24.684;2023-04-22T01:54:10;98505.91;;;13.03;71.53
22753;BME280;11543;43.144;24.684;2023-04-22T01:56:36;98520.69;;;12.99;71.97
22753;BME280;11543;43.144;24.684;2023-04-22T01:59:03;98522.97;;;12.88;71.84
22753;BME280;11543;43.144;24.684;2023-04-22T02:01:29;98524.72;;;12.72;72.23
22753;BME280;11543;43.144;24.684;2023-04-22T02:03:54;98527.47;;;12.64;72.93
22753;BME280;11543;43.144;24.684;2023-04-22T02:06:20;98526.41;;;12.73;73.50
22753;BME280;11543;43.144;24.684;2023-04-22T02:08:45;98530.13;;;12.72;73.10
22753;BME280;11543;43.144;24.684;2023-04-22T02:11:10;98525.03;;;12.77;73.48
22753;BME280;11543;43.144;24.684;2023-04-22T02:13:37;98533.25;;;12.84;73.41
22753;BME280;11543;43.144;24.684;2023-04-22T02:16:03;98520.94;;;12.90;73.35
22753;BME280;11543;43.144;24.684;2023-04-22T02:18:29;98524.41;;;12.98;72.80
22753;BME280;11543;43.144;24.684;2023-04-22T02:20:55;98527.78;;;13.00;72.75
22753;BME280;11543;43.144;24.684;2023-04-22T02:23:20;98526.59;;;13.03;72.38
22753;BME280;11543;43.144;24.684;2023-04-22T02:25:50;98532.31;;;13.00;72.25
22753;BME280;11543;43.144;24.684;2023-04-22T02:28:16;98529.72;;;12.84;72.18
22753;BME280;11543;43.144;24.684;2023-04-22T02:30:42;98540.53;;;12.75;72.46
22753;BME280;11543;43.144;24.684;2023-04-22T02:33:08;98536.25;;;12.58;72.71
22753;BME280;11543;43.144;24.684;2023-04-22T02:35:33;98538.09;;;12.58;72.92
22753;BME280;11543;43.144;24.684;2023-04-22T02:37:58;98532.22;;;12.54;72.85
22753;BME280;11543;43.144;24.684;2023-04-22T02:40:24;98540.00;;;12.49;73.08
22753;BME280;11543;43.144;24.684;2023-04-22T02:42:50;98539.28;;;12.55;73.26
22753;BME280;11543;43.144;24.684;2023-04-22T02:45:15;98539.25;;;12.63;73.28
22753;BME280;11543;43.144;24.684;2023-04-22T02:47:41;98536.56;;;12.63;73.01
22753;BME280;11543;43.144;24.684;2023-04-22T02:50:07;98546.63;;;12.69;72.67
22753;BME280;11543;43.144;24.684;2023-04-22T02:52:33;98542.59;;;12.65;72.55
22753;BME280;11543;43.144;24.684;2023-04-22T02:55:00;98545.44;;;12.72;72.41
22753;BME280;11543;43.144;24.684;2023-04-22T02:57:25;98544.94;;;12.68;72.23
22753;BME280;11543;43.144;24.684;2023-04-22T02:59:52;98552.00;;;12.69;71.89
22753;BME280;11543;43.144;24.684;2023-04-22T03:02:18;98546.25;;;12.72;71.59
22753;BME280;11543;43.144;24.684;2023-04-22T03:04:43;98554.69;;;12.69;71.56
22753;BME280;11543;43.144;24.684;2023-04-22T03:07:09;98561.44;;;12.65;71.75
22753;BME280;11543;43.144;24.684;2023-04-22T03:09:35;98546.00;;;12.59;71.62
22753;BME280;11543;43.144;24.684;2023-04-22T03:12:00;98548.38;;;12.54;71.70
22753;BME280;11543;43.144;24.684;2023-04-22T03:14:27;98553.72;;;12.62;71.61
22753;BME280;11543;43.144;24.684;2023-04-22T03:16:53;98560.78;;;12.63;71.44
22753;BME280;11543;43.144;24.684;2023-04-22T03:19:18;98547.19;;;12.57;71.23
22753;BME280;11543;43.144;24.684;2023-04-22T03:21:44;98548.69;;;12.59;71.10
22753;BME280;11543;43.144;24.684;2023-04-22T03:24:09;98557.09;;;12.56;71.20
22753;BME280;11543;43.144;24.684;2023-04-22T03:26:35;98550.75;;;12.49;71.48
22753;BME280;11543;43.144;24.684;2023-04-22T03:29:00;98569.56;;;12.57;71.47
22753;BME280;11543;43.144;24.684;2023-04-22T03:31:26;98557.16;;;12.48;71.37
22753;BME280;11543;43.144;24.684;2023-04-22T03:33:51;98566.06;;;12.49;71.76
22753;BME280;11543;43.144;24.684;2023-04-22T03:36:17;98571.41;;;12.57;71.69
22753;BME280;11543;43.144;24.684;2023-04-22T03:38:42;98564.88;;;12.51;71.62
22753;BME280;11543;43.144;24.684;2023-04-22T03:41:08;98571.59;;;12.55;71.69
22753;BME280;11543;43.144;24.684;2023-04-22T03:43:33;98567.53;;;12.59;71.80
22753;BME280;11543;43.144;24.684;2023-04-22T03:45:59;98567.88;;;12.56;71.75
22753;BME280;11543;43.144;24.684;2023-04-22T03:48:24;98574.59;;;12.60;71.71
22753;BME280;11543;43.144;24.684;2023-04-22T03:50:50;98575.06;;;12.64;71.74
22753;BME280;11543;43.144;24.684;2023-04-22T03:53:15;98576.09;;;12.63;71.73
22753;BME280;11543;43.144;24.684;2023-04-22T03:55:41;98576.94;;;12.63;71.58
22753;BME280;11543;43.144;24.684;2023-04-22T03:58:06;98584.66;;;12.66;71.58
22753;BME280;11543;43.144;24.684;2023-04-22T04:00:32;98571.53;;;12.63;71.63
22753;BME280;11543;43.144;24.684;2023-04-22T04:02:58;98579.94;;;12.68;71.74
22753;BME280;11543;43.144;24.684;2023-04-22T04:05:23;98583.16;;;12.64;71.92
22753;BME280;11543;43.144;24.684;2023-04-22T04:07:49;98570.53;;;12.64;71.91
22753;BME280;11543;43.144;24.684;2023-04-22T04:10:14;98583.63;;;12.67;71.87
22753;BME280;11543;43.144;24.684;2023-04-22T04:12:40;98599.75;;;12.75;72.01
22753;BME280;11543;43.144;24.684;2023-04-22T04:15:06;98601.25;;;12.78;72.25
22753;BME280;11543;43.144;24.684;2023-04-22T04:17:32;98602.28;;;12.77;72.05
22753;BME280;11543;43.144;24.684;2023-04-22T04:19:57;98607.13;;;12.82;71.95
22753;BME280;11543;43.144;24.684;2023-04-22T04:22:23;98606.47;;;12.80;71.96
22753;BME280;11543;43.144;24.684;2023-04-22T04:24:48;98610.16;;;12.79;72.16
22753;BME280;11543;43.144;24.684;2023-04-22T04:27:14;98617.38;;;12.86;72.10
22753;BME280;11543;43.144;24.684;2023-04-22T04:29:40;98613.34;;;12.82;71.92
22753;BME280;11543;43.144;24.684;2023-04-22T04:32:09;98623.25;;;12.90;72.03
22753;BME280;11543;43.144;24.684;2023-04-22T04:34:34;98613.31;;;12.90;72.05
22753;BME280;11543;43.144;24.684;2023-04-22T04:37:01;98621.22;;;12.92;72.03
22753;BME280;11543;43.144;24.684;2023-04-22T04:39:28;98615.34;;;12.88;72.11
22753;BME280;11543;43.144;24.684;2023-04-22T04:41:57;98619.88;;;12.88;72.59
22753;BME280;11543;43.144;24.684;2023-04-22T04:44:25;98608.09;;;12.89;72.73
22753;BME280;11543;43.144;24.684;2023-04-22T04:46:51;98613.13;;;12.92;72.60
22753;BME280;11543;43.144;24.684;2023-04-22T04:49:19;98603.88;;;12.94;72.58
22753;BME280;11543;43.144;24.684;2023-04-22T04:51:45;98605.72;;;13.02;72.81
22753;BME280;11543;43.144;24.684;2023-04-22T04:54:10;98605.00;;;13.00;72.80
22753;BME280;11543;43.144;24.684;2023-04-22T04:56:36;98614.09;;;13.07;72.60
22753;BME280;11543;43.144;24.684;2023-04-22T04:59:01;98594.94;;;13.02;72.94
22753;BME280;11543;43.144;24.684;2023-04-22T05:01:27;98602.00;;;13.03;72.94
22753;BME280;11543;43.144;24.684;2023-04-22T05:03:52;98599.97;;;13.05;73.29
22753;BME280;11543;43.144;24.684;2023-04-22T05:06:18;98611.38;;;13.15;73.83
22753;BME280;11543;43.144;24.684;2023-04-22T05:08:43;98615.91;;;13.15;73.80
22753;BME280;11543;43.144;24.684;2023-04-22T05:11:09;98616.75;;;13.15;74.22
22753;BME280;11543;43.144;24.684;2023-04-22T05:13:34;98615.06;;;13.14;74.42
22753;BME280;11543;43.144;24.684;2023-04-22T05:16:00;98620.13;;;13.17;74.69
22753;BME280;11543;43.144;24.684;2023-04-22T05:18:25;98618.09;;;13.19;74.78
22753;BME280;11543;43.144;24.684;2023-04-22T05:20:51;98608.28;;;13.26;74.72
22753;BME280;11543;43.144;24.684;2023-04-22T05:23:16;98622.72;;;13.33;74.61
22753;BME280;11543;43.144;24.684;2023-04-22T05:25:43;98615.63;;;13.41;74.40
22753;BME280;11543;43.144;24.684;2023-04-22T05:28:08;98622.31;;;13.45;74.21
22753;BME280;11543;43.144;24.684;2023-04-22T05:30:35;98618.91;;;13.51;73.98
22753;BME280;11543;43.144;24.684;2023-04-22T05:33:01;98625.56;;;13.63;73.75
22753;BME280;11543;43.144;24.684;2023-04-22T05:35:26;98625.84;;;13.68;73.34
22753;BME280;11543;43.144;24.684;2023-04-22T05:37:52;98628.84;;;13.73;72.95
22753;BME280;11543;43.144;24.684;2023-04-22T05:40:19;98629.97;;;13.79;72.85
22753;BME280;11543;43.144;24.684;2023-04-22T05:42:44;98626.75;;;13.83;72.90
22753;BME280;11543;43.144;24.684;2023-04-22T05:45:10;98629.88;;;13.95;73.23
22753;BME280;11543;43.144;24.684;2023-04-22T05:47:35;98638.75;;;14.03;73.54
22753;BME280;11543;43.144;24.684;2023-04-22T05:50:01;98640.06;;;14.08;73.71
22753;BME280;11543;43.144;24.684;2023-04-22T05:52:26;98630.22;;;14.15;73.70
22753;BME280;11543;43.144;24.684;2023-04-22T05:54:52;98639.53;;;14.27;73.84
22753;BME280;11543;43.144;24.684;2023-04-22T05:57:17;98635.34;;;14.39;73.75
22753;BME280;11543;43.144;24.684;2023-04-22T05:59:43;98632.88;;;14.52;73.67
22753;BME280;11543;43.144;24.684;2023-04-22T06:02:09;98627.78;;;14.57;73.72
22753;BME280;11543;43.144;24.684;2023-04-22T06:04:34;98637.25;;;14.68;73.30
22753;BME280;11543;43.144;24.684;2023-04-22T06:07:00;98636.72;;;14.73;73.21
22753;BME280;11543;43.144;24.684;2023-04-22T06:09:27;98632.91;;;14.82;72.59
22753;BME280;11543;43.144;24.684;2023-04-22T06:11:52;98644.72;;;14.95;71.92
22753;BME280;11543;43.144;24.684;2023-04-22T06:14:18;98646.69;;;15.02;71.83
22753;BME280;11543;43.144;24.684;2023-04-22T06:16:43;98653.47;;;15.12;71.40
22753;BME280;11543;43.144;24.684;2023-04-22T06:19:10;98644.53;;;15.12;71.28
22753;BME280;11543;43.144;24.684;2023-04-22T06:21:35;98658.75;;;15.20;71.23
22753;BME280;11543;43.144;24.684;2023-04-22T06:24:04;98657.63;;;15.29;70.91
22753;BME280;11543;43.144;24.684;2023-04-22T06:26:30;98652.22;;;15.29;70.69
22753;BME280;11543;43.144;24.684;2023-04-22T06:28:55;98658.91;;;15.34;70.46
22753;BME280;11543;43.144;24.684;2023-04-22T06:31:21;98668.59;;;15.43;70.18
22753;BME280;11543;43.144;24.684;2023-04-22T06:33:46;98667.84;;;15.49;69.67
22753;BME280;11543;43.144;24.684;2023-04-22T06:36:13;98665.78;;;15.51;69.73
22753;BME280;11543;43.144;24.684;2023-04-22T06:38:40;98662.88;;;15.52;69.53
22753;BME280;11543;43.144;24.684;2023-04-22T06:41:05;98672.41;;;15.63;69.38
22753;BME280;11543;43.144;24.684;2023-04-22T06:43:31;98659.25;;;15.60;69.48
22753;BME280;11543;43.144;24.684;2023-04-22T06:45:56;98660.84;;;15.69;69.58
22753;BME280;11543;43.144;24.684;2023-04-22T06:48:22;98685.69;;;15.79;69.81
22753;BME280;11543;43.144;24.684;2023-04-22T06:50:48;98667.16;;;15.76;69.84
22753;BME280;11543;43.144;24.684;2023-04-22T06:53:14;98667.41;;;15.81;70.01
22753;BME280;11543;43.144;24.684;2023-04-22T06:55:39;98679.53;;;15.85;70.01
22753;BME280;11543;43.144;24.684;2023-04-22T06:58:04;98687.50;;;15.93;70.11
22753;BME280;11543;43.144;24.684;2023-04-22T07:00:30;98690.03;;;15.95;70.01
22753;BME280;11543;43.144;24.684;2023-04-22T07:02:56;98685.84;;;15.92;69.96
22753;BME280;11543;43.144;24.684;2023-04-22T07:05:22;98689.19;;;15.95;69.96
22753;BME280;11543;43.144;24.684;2023-04-22T07:07:47;98690.47;;;15.99;69.99
22753;BME280;11543;43.144;24.684;2023-04-22T07:10:12;98701.69;;;15.96;70.02
22753;BME280;11543;43.144;24.684;2023-04-22T07:12:39;98709.16;;;15.93;70.06
22753;BME280;11543;43.144;24.684;2023-04-22T07:15:06;98707.53;;;15.99;70.08
22753;BME280;11543;43.144;24.684;2023-04-22T07:17:31;98706.19;;;15.88;70.41
22753;BME280;11543;43.144;24.684;2023-04-22T07:19:57;98714.03;;;15.83;71.04
22753;BME280;11543;43.144;24.684;2023-04-22T07:22:22;98711.06;;;15.78;71.56
22753;BME280;11543;43.144;24.684;2023-04-22T07:24:48;98713.50;;;15.73;71.75
22753;BME280;11543;43.144;24.684;2023-04-22T07:27:13;98712.59;;;15.66;72.12
22753;BME280;11543;43.144;24.684;2023-04-22T07:29:39;98715.88;;;15.62;72.69
22753;BME280;11543;43.144;24.684;2023-04-22T07:32:05;98717.91;;;15.59;73.05
22753;BME280;11543;43.144;24.684;2023-04-22T07:34:31;98713.59;;;15.50;73.44
22753;BME280;11543;43.144;24.684;2023-04-22T07:36:56;98729.00;;;15.50;73.74
22753;BME280;11543;43.144;24.684;2023-04-22T07:39:22;98721.63;;;15.44;74.16
22753;BME280;11543;43.144;24.684;2023-04-22T07:41:47;98721.38;;;15.39;74.30
22753;BME280;11543;43.144;24.684;2023-04-22T07:44:13;98729.28;;;15.40;74.88
22753;BME280;11543;43.144;24.684;2023-04-22T07:46:42;98738.88;;;15.43;75.26
22753;BME280;11543;43.144;24.684;2023-04-22T07:49:08;98746.72;;;15.38;76.07
22753;BME280;11543;43.144;24.684;2023-04-22T07:51:34;98741.50;;;15.21;77.74
22753;BME280;11543;43.144;24.684;2023-04-22T07:53:59;98735.00;;;15.16;78.80
22753;BME280;11543;43.144;24.684;2023-04-22T07:56:25;98742.53;;;15.20;79.13
22753;BME280;11543;43.144;24.684;2023-04-22T07:58:50;98739.19;;;15.18;79.54
22753;BME280;11543;43.144;24.684;2023-04-22T08:01:16;98740.97;;;15.11;80.70
22753;BME280;11543;43.144;24.684;2023-04-22T08:03:41;98753.25;;;14.99;82.30
22753;BME280;11543;43.144;24.684;2023-04-22T08:06:07;98748.03;;;14.83;83.04
22753;BME280;11543;43.144;24.684;2023-04-22T08:08:33;98753.16;;;14.78;83.59
22753;BME280;11543;43.144;24.684;2023-04-22T08:10:58;98753.84;;;14.72;84.22
22753;BME280;11543;43.144;24.684;2023-04-22T08:13:23;98753.56;;;14.66;84.64
22753;BME280;11543;43.144;24.684;2023-04-22T08:15:50;98754.28;;;14.60;85.13
22753;BME280;11543;43.144;24.684;2023-04-22T08:18:16;98753.94;;;14.63;84.97
22753;BME280;11543;43.144;24.684;2023-04-22T08:20:42;98761.38;;;14.61;85.24
22753;BME280;11543;43.144;24.684;2023-04-22T08:23:09;98762.69;;;14.65;85.28
22753;BME280;11543;43.144;24.684;2023-04-22T08:25:35;98753.19;;;14.70;85.29
22753;BME280;11543;43.144;24.684;2023-04-22T08:28:02;98765.19;;;14.67;85.97
22753;BME280;11543;43.144;24.684;2023-04-22T08:30:27;98769.53;;;14.76;85.26
22753;BME280;11543;43.144;24.684;2023-04-22T08:32:53;98764.97;;;14.77;85.13
22753;BME280;11543;43.144;24.684;2023-04-22T08:35:19;98766.03;;;14.68;85.04
22753;BME280;11543;43.144;24.684;2023-04-22T08:37:44;98758.00;;;14.59;85.49
22753;BME280;11543;43.144;24.684;2023-04-22T08:40:10;98766.41;;;14.64;85.53
22753;BME280;11543;43.144;24.684;2023-04-22T08:42:38;98771.44;;;14.68;84.99
22753;BME280;11543;43.144;24.684;2023-04-22T08:45:05;98769.03;;;14.73;84.78
22753;BME280;11543;43.144;24.684;2023-04-22T08:47:31;98768.31;;;14.79;84.25
22753;BME280;11543;43.144;24.684;2023-04-22T08:50:00;98777.28;;;14.94;83.80
22753;BME280;11543;43.144;24.684;2023-04-22T08:52:27;98768.06;;;14.88;84.06
22753;BME280;11543;43.144;24.684;2023-04-22T08:54:56;98772.34;;;14.83;84.71
22753;BME280;11543;43.144;24.684;2023-04-22T08:57:23;98784.81;;;14.84;85.16
22753;BME280;11543;43.144;24.684;2023-04-22T08:59:50;98771.44;;;14.68;86.03
22753;BME280;11543;43.144;24.684;2023-04-22T09:02:19;98770.56;;;14.90;85.96
22753;BME280;11543;43.144;24.684;2023-04-22T09:04:46;98770.78;;;15.03;86.10
22753;BME280;11543;43.144;24.684;2023-04-22T09:07:22;98775.06;;;15.12;85.73
22753;BME280;11543;43.144;24.684;2023-04-22T09:09:48;98779.16;;;15.08;84.78
22753;BME280;11543;43.144;24.684;2023-04-22T09:12:14;98770.88;;;14.95;85.10
22753;BME280;11543;43.144;24.684;2023-04-22T09:14:42;98774.59;;;14.94;85.64
22753;BME280;11543;43.144;24.684;2023-04-22T09:17:08;98777.19;;;15.02;85.65
22753;BME280;11543;43.144;24.684;2023-04-22T09:19:34;98788.84;;;15.17;84.96
22753;BME280;11543;43.144;24.684;2023-04-22T09:21:59;98779.72;;;15.18;84.75
22753;BME280;11543;43.144;24.684;2023-04-22T09:24:26;98778.31;;;15.22;84.67
22753;BME280;11543;43.144;24.684;2023-04-22T09:26:55;98780.84;;;15.39;84.34
22753;BME280;11543;43.144;24.684;2023-04-22T09:29:28;98774.41;;;15.40;83.31
22753;BME280;11543;43.144;24.684;2023-04-22T09:31:54;98773.09;;;15.50;82.38
22753;BME280;11543;43.144;24.684;2023-04-22T09:34:20;98765.25;;;15.55;81.21
22753;BME280;11543;43.144;24.684;2023-04-22T09:36:49;98767.91;;;15.64;80.05
22753;BME280;11543;43.144;24.684;2023-04-22T09:39:15;98777.69;;;15.79;79.03
22753;BME280;11543;43.144;24.684;2023-04-22T09:41:41;98766.84;;;15.79;78.68
22753;BME280;11543;43.144;24.684;2023-04-22T09:44:15;98782.13;;;15.87;77.55
22753;BME280;11543;43.144;24.684;2023-04-22T09:46:42;98774.84;;;15.87;76.94
22753;BME280;11543;43.144;24.684;2023-04-22T09:49:07;98772.03;;;15.96;76.83
22753;BME280;11543;43.144;24.684;2023-04-22T09:51:33;98778.63;;;16.08;76.05
22753;BME280;11543;43.144;24.684;2023-04-22T09:54:06;98775.78;;;16.16;75.86
22753;BME280;11543;43.144;24.684;2023-04-22T09:59:05;98765.22;;;16.21;75.21
22753;BME280;11543;43.144;24.684;2023-04-22T10:01:38;98776.56;;;16.31;74.97
22753;BME280;11543;43.144;24.684;2023-04-22T10:04:09;98775.16;;;16.35;74.74
22753;BME280;11543;43.144;24.684;2023-04-22T10:06:36;98765.34;;;16.34;74.71
22753;BME280;11543;43.144;24.684;2023-04-22T10:09:02;98779.59;;;16.43;74.59
22753;BME280;11543;43.144;24.684;2023-04-22T10:11:30;98777.34;;;16.46;74.57
22753;BME280;11543;43.144;24.684;2023-04-22T10:13:57;98774.28;;;16.49;74.68
22753;BME280;11543;43.144;24.684;2023-04-22T10:16:23;98770.53;;;16.50;74.63
22753;BME280;11543;43.144;24.684;2023-04-22T10:18:53;98770.53;;;16.50;74.64
22753;BME280;11543;43.144;24.684;2023-04-22T10:21:19;98765.09;;;16.50;74.40
22753;BME280;11543;43.144;24.684;2023-04-22T10:23:46;98776.84;;;16.58;73.28
22753;BME280;11543;43.144;24.684;2023-04-22T10:26:17;98766.78;;;16.51;72.96
22753;BME280;11543;43.144;24.684;2023-04-22T10:28:58;98761.47;;;16.65;73.33
22753;BME280;11543;43.144;24.684;2023-04-22T10:31:24;98754.53;;;16.77;73.72
22753;BME280;11543;43.144;24.684;2023-04-22T10:33:49;98761.31;;;16.94;73.96
22753;BME280;11543;43.144;24.684;2023-04-22T10:41:15;98741.41;;;17.08;70.58
22753;BME280;11543;43.144;24.684;2023-04-22T10:43:47;98736.84;;;17.15;69.63
22753;BME280;11543;43.144;24.684;2023-04-22T10:49:09;98710.22;;;17.26;68.09
22753;BME280;11543;43.144;24.684;2023-04-22T10:51:43;98725.34;;;17.48;67.78
22753;BME280;11543;43.144;24.684;2023-04-22T10:57:13;98714.41;;;17.69;67.83
22753;BME280;11543;43.144;24.684;2023-04-22T10:59:46;98708.38;;;17.80;67.47
22753;BME280;11543;43.144;24.684;2023-04-22T11:02:15;98713.84;;;17.87;67.23
22753;BME280;11543;43.144;24.684;2023-04-22T11:04:41;98718.47;;;18.00;66.65
22753;BME280;11543;43.144;24.684;2023-04-22T11:15:14;98719.38;;;18.60;65.25
22753;BME280;11543;43.144;24.684;2023-04-22T11:17:50;98717.31;;;18.75;64.54
22753;BME280;11543;43.144;24.684;2023-04-22T11:20:17;98715.00;;;18.85;64.01
22753;BME280;11543;43.144;24.684;2023-04-22T11:22:53;98724.56;;;19.01;63.42
22753;BME280;11543;43.144;24.684;2023-04-22T11:25:20;98723.97;;;19.12;63.18
22753;BME280;11543;43.144;24.684;2023-04-22T11:27:46;98717.66;;;19.25;62.37
22753;BME280;11543;43.144;24.684;2023-04-22T11:30:16;98726.00;;;19.30;62.13
22753;BME280;11543;43.144;24.684;2023-04-22T11:32:44;98726.38;;;19.40;62.07
22753;BME280;11543;43.144;24.684;2023-04-22T11:35:23;98706.28;;;19.41;61.29
22753;BME280;11543;43.144;24.684;2023-04-22T11:37:51;98710.44;;;19.50;61.01
22753;BME280;11543;43.144;24.684;2023-04-22T11:40:40;98713.78;;;19.59;61.18
22753;BME280;11543;43.144;24.684;2023-04-22T11:43:05;98720.03;;;19.66;60.78
22753;BME280;11543;43.144;24.684;2023-04-22T11:45:35;98714.59;;;19.66;59.72
22753;BME280;11543;43.144;24.684;2023-04-22T11:48:03;98703.31;;;19.62;59.30
22753;BME280;11543;43.144;24.684;2023-04-22T11:50:31;98705.13;;;19.75;59.65
22753;BME280;11543;43.144;24.684;2023-04-22T11:53:00;98702.78;;;19.79;58.58
22753;BME280;11543;43.144;24.684;2023-04-22T11:55:33;98710.47;;;19.95;59.23
22753;BME280;11543;43.144;24.684;2023-04-22T11:58:00;98712.03;;;20.16;59.26
22753;BME280;11543;43.144;24.684;2023-04-22T12:00:36;98706.69;;;20.27;59.29
22753;BME280;11543;43.144;24.684;2023-04-22T12:05:44;98704.69;;;20.48;58.04
22753;BME280;11543;43.144;24.684;2023-04-22T12:10:42;98703.81;;;20.54;56.45
22753;BME280;11543;43.144;24.684;2023-04-22T12:13:08;98701.06;;;20.54;56.90
22753;BME280;11543;43.144;24.684;2023-04-22T12:15:40;98695.19;;;20.57;56.63
22753;BME280;11543;43.144;24.684;2023-04-22T12:18:06;98696.28;;;20.74;56.40
22753;BME280;11543;43.144;24.684;2023-04-22T12:20:35;98691.03;;;20.97;54.05
22753;BME280;11543;43.144;24.684;2023-04-22T12:23:02;98694.84;;;20.96;52.91
22753;BME280;11543;43.144;24.684;2023-04-22T12:25:28;98673.53;;;20.87;53.88
22753;BME280;11543;43.144;24.684;2023-04-22T12:27:54;98691.94;;;20.91;55.04
22753;BME280;11543;43.144;24.684;2023-04-22T12:30:20;98683.78;;;21.10;54.66
22753;BME280;11543;43.144;24.684;2023-04-22T12:32:47;98686.09;;;21.31;53.89
22753;BME280;11543;43.144;24.684;2023-04-22T12:35:13;98671.66;;;21.42;52.37
22753;BME280;11543;43.144;24.684;2023-04-22T12:37:38;98682.03;;;21.52;52.79
22753;BME280;11543;43.144;24.684;2023-04-22T12:40:04;98675.75;;;21.51;52.52
22753;BME280;11543;43.144;24.684;2023-04-22T12:42:31;98669.09;;;21.47;52.74
22753;BME280;11543;43.144;24.684;2023-04-22T12:44:57;98657.53;;;21.63;53.17
22753;BME280;11543;43.144;24.684;2023-04-22T12:47:22;98665.72;;;21.82;52.27
22753;BME280;11543;43.144;24.684;2023-04-22T12:49:49;98661.72;;;21.96;51.48
22753;BME280;11543;43.144;24.684;2023-04-22T12:52:14;98665.25;;;22.15;51.40
22753;BME280;11543;43.144;24.684;2023-04-22T12:54:40;98650.88;;;22.19;51.55
22753;BME280;11543;43.144;24.684;2023-04-22T12:57:05;98653.28;;;22.28;52.19
22753;BME280;11543;43.144;24.684;2023-04-22T12:59:31;98661.00;;;22.42;52.05
22753;BME280;11543;43.144;24.684;2023-04-22T13:01:56;98643.59;;;22.55;51.67
22753;BME280;11543;43.144;24.684;2023-04-22T13:04:22;98645.13;;;22.74;50.58
22753;BME280;11543;43.144;24.684;2023-04-22T13:06:47;98651.63;;;23.20;49.69
22753;BME280;11543;43.144;24.684;2023-04-22T13:09:20;98643.50;;;23.48;47.93
22753;BME280;11543;43.144;24.684;2023-04-22T13:11:46;98636.78;;;23.68;47.03
22753;BME280;11543;43.144;24.684;2023-04-22T13:14:13;98649.19;;;23.87;46.53